Time;durP1;ratioP1;P1;durP2;ratioP2;P2;SDS_P1;SDS_P2;PMS_P1;PMS_P2;Temp;Humidity;BMP_temperature;BMP_pressure;BME280_temperature;BME280_humidity;BME280_pressure;Samples;Min_cycle;Max_cycle;Signal;HPM_P1;HPM_P2
2024/02/05 00:00:04;;;;;;;1.03;0.40;;;7.60;99.90;;;;;;4984847;28;20456;-82
2024/02/05 00:02:31;;;;;;;0.80;0.37;;;7.70;99.90;;;;;;4983492;28;20496;-82
2024/02/05 00:04:58;;;;;;;0.40;0.30;;;7.60;99.90;;;;;;4984140;28;20445;-82
2024/02/05 00:07:24;;;;;;;0.60;0.60;;;7.70;99.90;;;;;;4983153;28;20469;-82
2024/02/05 00:09:52;;;;;;;0.50;0.40;;;7.70;99.90;;;;;;4983393;28;20450;-83
2024/02/05 00:12:20;;;;;;;0.40;0.30;;;7.70;99.90;;;;;;4982489;28;20811;-82
2024/02/05 00:14:47;;;;;;;1.00;0.70;;;7.60;99.90;;;;;;4982656;28;20445;-83
2024/02/05 00:17:14;;;;;;;0.80;0.50;;;7.70;99.90;;;;;;4981950;28;20438;-82
2024/02/05 00:19:40;;;;;;;0.50;0.50;;;7.70;99.90;;;;;;4984015;28;20505;-83
2024/02/05 00:22:07;;;;;;;0.30;0.20;;;7.70;99.90;;;;;;4983576;28;20508;-83
2024/02/05 00:24:34;;;;;;;0.30;0.30;;;7.60;99.90;;;;;;4983583;28;20449;-82
2024/02/05 00:27:01;;;;;;;0.43;0.30;;;7.60;99.90;;;;;;4982705;28;20445;-83
2024/02/05 00:29:29;;;;;;;0.40;0.30;;;7.60;99.90;;;;;;4982928;28;20457;-83
2024/02/05 00:31:55;;;;;;;0.40;0.30;;;7.50;99.90;;;;;;4981498;28;20457;-83
2024/02/05 00:34:22;;;;;;;0.30;0.30;;;7.50;99.90;;;;;;4981095;28;20449;-83
2024/02/05 00:36:49;;;;;;;0.97;0.40;;;7.40;99.90;;;;;;4981124;28;20807;-84
2024/02/05 00:39:15;;;;;;;0.30;0.30;;;7.30;99.90;;;;;;4980344;28;20485;-82
2024/02/05 00:41:42;;;;;;;0.33;0.30;;;7.30;99.90;;;;;;4982485;28;20496;-83
2024/02/05 00:44:09;;;;;;;0.30;0.30;;;7.30;99.90;;;;;;4982222;28;20976;-83
2024/02/05 00:46:37;;;;;;;0.40;0.30;;;7.20;99.90;;;;;;4982742;28;20457;-83
2024/02/05 00:49:04;;;;;;;0.30;0.30;;;7.20;99.90;;;;;;4982197;28;20469;-83
2024/02/05 00:51:31;;;;;;;0.40;0.33;;;7.20;99.90;;;;;;4981212;28;20475;-83
2024/02/05 00:53:58;;;;;;;0.40;0.30;;;7.20;99.90;;;;;;4986118;28;20464;-83
2024/02/05 00:56:25;;;;;;;0.90;0.60;;;7.10;99.90;;;;;;4992716;28;20472;-82
2024/02/05 00:58:52;;;;;;;0.70;0.30;;;7.10;99.90;;;;;;4976674;28;20469;-82
2024/02/05 01:01:19;;;;;;;0.30;0.30;;;7.10;99.90;;;;;;4976904;28;20481;-82
2024/02/05 01:03:47;;;;;;;0.40;0.40;;;7.10;99.90;;;;;;4976747;28;20476;-83
2024/02/05 01:06:13;;;;;;;0.40;0.40;;;7.00;99.90;;;;;;4977103;28;20441;-82
2024/02/05 01:08:40;;;;;;;0.50;0.30;;;7.10;99.90;;;;;;4976676;28;20474;-83
2024/02/05 01:11:07;;;;;;;1.17;0.50;;;7.10;99.90;;;;;;4976898;28;20457;-83
2024/02/05 01:13:34;;;;;;;0.43;0.40;;;7.20;99.90;;;;;;4975947;28;20449;-83
2024/02/05 01:16:02;;;;;;;0.70;0.30;;;7.20;99.90;;;;;;4976284;28;20453;-83
2024/02/05 01:18:29;;;;;;;0.30;0.20;;;7.20;99.90;;;;;;4976964;28;20473;-82
2024/02/05 01:20:58;;;;;;;0.40;0.30;;;7.20;99.90;;;;;;4976386;28;20453;-83
2024/02/05 01:23:25;;;;;;;0.30;0.30;;;7.30;99.90;;;;;;4976594;28;20504;-83
2024/02/05 01:25:52;;;;;;;0.30;0.30;;;7.40;99.90;;;;;;4977370;28;20464;-83
2024/02/05 01:28:20;;;;;;;0.30;0.30;;;7.30;99.90;;;;;;4976839;28;20465;-83
2024/02/05 01:30:47;;;;;;;0.50;0.30;;;7.30;99.90;;;;;;4976794;28;20517;-83
2024/02/05 01:33:13;;;;;;;0.40;0.33;;;7.20;99.90;;;;;;4977326;28;20449;-83
2024/02/05 01:35:40;;;;;;;0.67;0.40;;;7.30;99.90;;;;;;4976953;28;20452;-83
2024/02/05 01:38:08;;;;;;;0.40;0.40;;;7.30;99.90;;;;;;4977230;28;20473;-82
2024/02/05 01:40:36;;;;;;;1.07;0.73;;;7.30;99.90;;;;;;4978135;28;20446;-83
2024/02/05 01:43:03;;;;;;;0.40;0.40;;;7.30;99.90;;;;;;4975960;28;20532;-83
2024/02/05 01:45:30;;;;;;;0.30;0.30;;;7.30;99.90;;;;;;4976117;28;20549;-83
2024/02/05 01:47:57;;;;;;;0.30;0.30;;;7.30;99.90;;;;;;4976380;28;20484;-83
2024/02/05 01:50:24;;;;;;;0.53;0.40;;;7.20;99.90;;;;;;4976037;28;20444;-83
2024/02/05 01:52:50;;;;;;;0.50;0.40;;;7.30;99.90;;;;;;4976717;28;20441;-83
2024/02/05 01:55:21;;;;;;;0.53;0.40;;;7.30;99.90;;;;;;4976415;28;20460;-83
2024/02/05 01:57:48;;;;;;;0.40;0.30;;;7.40;99.90;;;;;;4976545;28;20229;-83
2024/02/05 02:00:16;;;;;;;0.30;0.30;;;7.40;99.90;;;;;;4976213;28;20452;-83
2024/02/05 02:02:43;;;;;;;0.50;0.30;;;7.40;99.90;;;;;;4976183;28;20681;-83
2024/02/05 02:05:11;;;;;;;0.30;0.30;;;7.40;99.90;;;;;;4976061;28;21056;-83
2024/02/05 02:07:39;;;;;;;0.43;0.43;;;7.40;99.90;;;;;;4975841;28;20454;-82
2024/02/05 02:10:07;;;;;;;0.87;0.50;;;7.40;99.90;;;;;;4976062;28;20441;-83
2024/02/05 02:12:35;;;;;;;0.33;0.27;;;7.40;99.90;;;;;;4975814;28;20449;-83
2024/02/05 02:15:03;;;;;;;1.30;0.30;;;7.40;99.90;;;;;;4976021;28;20457;-82
2024/02/05 02:17:33;;;;;;;0.30;0.30;;;7.40;99.90;;;;;;4976066;28;20469;-83
2024/02/05 02:20:00;;;;;;;0.37;0.37;;;7.30;99.90;;;;;;4976193;28;20818;-83
2024/02/05 02:22:37;;;;;;;0.40;0.40;;;7.30;99.90;;;;;;4976140;28;20496;-83
2024/02/05 02:25:07;;;;;;;0.40;0.30;;;7.40;99.90;;;;;;4977349;28;20978;-83
2024/02/05 02:27:34;;;;;;;0.30;0.30;;;7.40;99.90;;;;;;4979428;28;20532;-83
2024/02/05 02:30:01;;;;;;;0.30;0.30;;;7.40;99.90;;;;;;4979632;28;20453;-83
2024/02/05 02:32:38;;;;;;;0.30;0.30;;;7.40;99.90;;;;;;4979405;28;20441;-83
2024/02/05 02:35:12;;;;;;;2.37;0.40;;;7.40;99.90;;;;;;4979366;28;20813;-83
2024/02/05 02:37:45;;;;;;;0.60;0.47;;;7.30;99.90;;;;;;4978794;28;20522;-83
2024/02/05 02:40:16;;;;;;;0.30;0.30;;;7.40;99.90;;;;;;4979210;28;20457;-83
2024/02/05 02:42:44;;;;;;;0.67;0.30;;;7.40;99.90;;;;;;4979479;28;20480;-83
2024/02/05 02:45:12;;;;;;;0.40;0.40;;;7.40;99.90;;;;;;4979168;28;20484;-83
2024/02/05 02:47:41;;;;;;;0.30;0.30;;;7.50;99.90;;;;;;4978896;28;20465;-83
2024/02/05 02:50:09;;;;;;;0.40;0.30;;;7.40;99.90;;;;;;4979498;28;20449;-83
2024/02/05 02:52:36;;;;;;;0.30;0.30;;;7.50;99.90;;;;;;4979100;28;20812;-83
2024/02/05 02:55:03;;;;;;;0.40;0.40;;;7.50;99.90;;;;;;4979198;28;20896;-83
2024/02/05 02:57:31;;;;;;;0.33;0.27;;;7.40;99.90;;;;;;4979220;28;20476;-83
2024/02/05 02:59:57;;;;;;;12.80;0.73;;;7.40;99.90;;;;;;4978739;28;20460;-82
2024/02/05 03:02:24;;;;;;;0.30;0.30;;;7.40;99.90;;;;;;4978996;28;20520;-83
2024/02/05 03:04:54;;;;;;;0.30;0.30;;;7.40;99.90;;;;;;4978865;28;20458;-83
2024/02/05 03:07:21;;;;;;;0.47;0.40;;;7.40;99.90;;;;;;4992190;28;20449;-84
2024/02/05 03:09:48;;;;;;;0.30;0.30;;;7.30;99.90;;;;;;4987410;28;20785;-82
2024/02/05 03:12:14;;;;;;;0.40;0.40;;;7.30;99.90;;;;;;4978325;28;20441;-82
2024/02/05 03:14:42;;;;;;;0.60;0.57;;;7.30;99.90;;;;;;4978177;28;20453;-83
2024/02/05 03:17:10;;;;;;;0.57;0.40;;;;;;;;;;4977882;28;20441;-83
2024/02/05 03:19:36;;;;;;;0.50;0.40;;;7.20;99.90;;;;;;4978357;28;20441;-83
2024/02/05 03:22:03;;;;;;;0.50;0.47;;;7.20;99.90;;;;;;4978218;28;20485;-83
2024/02/05 03:24:30;;;;;;;0.30;0.20;;;7.30;99.90;;;;;;4978150;28;20453;-83
2024/02/05 03:26:57;;;;;;;0.30;0.30;;;7.20;99.90;;;;;;4978009;28;20456;-83
2024/02/05 03:29:23;;;;;;;3.10;0.33;;;7.30;99.90;;;;;;4977955;28;20799;-83
2024/02/05 03:31:51;;;;;;;0.93;0.60;;;7.20;99.90;;;;;;4977926;28;20441;-83
2024/02/05 03:34:18;;;;;;;0.50;0.40;;;7.20;99.90;;;;;;4977923;28;20795;-83
2024/02/05 03:36:45;;;;;;;1.20;0.37;;;7.20;99.90;;;;;;4977485;28;20457;-83
2024/02/05 03:39:11;;;;;;;0.53;0.33;;;7.20;99.90;;;;;;4977457;28;20486;-83
2024/02/05 03:41:38;;;;;;;0.30;0.30;;;7.20;99.90;;;;;;4977531;28;20445;-83
2024/02/05 03:44:05;;;;;;;0.53;0.40;;;7.20;99.90;;;;;;4977863;28;20460;-83
2024/02/05 03:46:31;;;;;;;0.40;0.40;;;7.20;99.90;;;;;;4977896;28;20441;-83
2024/02/05 03:49:00;;;;;;;0.30;0.27;;;7.20;99.90;;;;;;4978060;28;20484;-83
2024/02/05 03:51:26;;;;;;;0.30;0.30;;;7.20;99.90;;;;;;4978222;28;20445;-83
2024/02/05 03:53:53;;;;;;;0.30;0.20;;;8.20;99.90;;;;;;4977868;28;20787;-83
2024/02/05 03:56:20;;;;;;;0.30;0.30;;;7.10;99.90;;;;;;4977594;28;20460;-83
2024/02/05 03:58:48;;;;;;;0.60;0.40;;;7.10;99.90;;;;;;4977729;28;20835;-83
2024/02/05 04:01:15;;;;;;;0.40;0.30;;;7.20;99.90;;;;;;4977765;28;20453;-83
2024/02/05 04:03:41;;;;;;;0.40;0.30;;;7.10;99.90;;;;;;4977394;28;20480;-83
2024/02/05 04:06:09;;;;;;;2.00;0.57;;;7.10;99.90;;;;;;4977456;28;20446;-83
2024/02/05 04:08:36;;;;;;;0.30;0.30;;;7.10;99.90;;;;;;4977649;28;20465;-83
2024/02/05 04:11:03;;;;;;;0.40;0.40;;;7.10;99.90;;;;;;4977673;28;20504;-83
2024/02/05 04:13:30;;;;;;;0.40;0.40;;;7.10;99.90;;;;;;4977689;28;20939;-83
2024/02/05 04:15:57;;;;;;;1.00;0.83;;;7.20;99.90;;;;;;4977181;28;20445;-83
2024/02/05 04:18:24;;;;;;;0.40;0.37;;;7.10;99.90;;;;;;4977273;28;21015;-83
2024/02/05 04:20:52;;;;;;;0.90;0.30;;;7.00;99.90;;;;;;4977172;28;20449;-83
2024/02/05 04:23:20;;;;;;;0.30;0.30;;;6.90;99.90;;;;;;4977485;28;20489;-83
2024/02/05 04:25:47;;;;;;;0.40;0.33;;;6.80;99.90;;;;;;4977512;28;20817;-83
2024/02/05 04:28:14;;;;;;;0.67;0.40;;;6.80;99.90;;;;;;4977881;28;20472;-82
2024/02/05 04:30:41;;;;;;;0.50;0.30;;;6.80;99.90;;;;;;4977782;28;20449;-83
2024/02/05 04:33:07;;;;;;;0.30;0.30;;;6.80;99.90;;;;;;4978740;28;20774;-83
2024/02/05 04:35:34;;;;;;;0.97;0.30;;;6.90;99.90;;;;;;4978158;28;20441;-83
2024/02/05 04:38:01;;;;;;;0.40;0.40;;;6.80;99.90;;;;;;4977729;28;20512;-83
2024/02/05 04:40:29;;;;;;;0.40;0.40;;;6.80;99.90;;;;;;4977719;28;20453;-83
2024/02/05 04:42:56;;;;;;;0.30;0.30;;;6.80;99.90;;;;;;4977532;28;20499;-82
2024/02/05 04:45:22;;;;;;;0.57;0.40;;;6.80;99.90;;;;;;4977704;28;20453;-83
2024/02/05 04:47:49;;;;;;;0.80;0.30;;;6.70;99.90;;;;;;4976418;28;20461;-83
2024/02/05 04:50:16;;;;;;;0.30;0.30;;;6.70;99.90;;;;;;4978288;28;20457;-83
2024/02/05 04:52:43;;;;;;;2.50;0.40;;;6.80;99.90;;;;;;4977534;28;20447;-83
2024/02/05 04:55:09;;;;;;;0.73;0.50;;;6.80;99.90;;;;;;4976922;28;20460;-83
2024/02/05 04:57:38;;;;;;;0.30;0.30;;;6.80;99.90;;;;;;4977814;28;20465;-83
2024/02/05 05:00:06;;;;;;;0.60;0.33;;;8.40;99.90;;;;;;4977623;28;20954;-83
2024/02/05 05:02:32;;;;;;;0.30;0.30;;;6.90;99.90;;;;;;4977861;28;20536;-83
2024/02/05 05:04:59;;;;;;;0.30;0.20;;;6.80;99.90;;;;;;4977979;28;20450;-83
2024/02/05 05:07:26;;;;;;;0.30;0.20;;;6.80;99.90;;;;;;4977819;28;20469;-83
2024/02/05 05:09:53;;;;;;;0.40;0.30;;;6.80;99.90;;;;;;4978907;28;20464;-83
2024/02/05 05:12:20;;;;;;;0.40;0.30;;;6.80;99.90;;;;;;4977540;28;20453;-83
2024/02/05 05:14:48;;;;;;;0.40;0.30;;;6.80;99.90;;;;;;4976888;28;20816;-83
2024/02/05 05:17:14;;;;;;;0.30;0.20;;;6.90;99.90;;;;;;4976472;28;20964;-83
2024/02/05 05:19:41;;;;;;;0.30;0.20;;;6.90;99.90;;;;;;4987926;28;20422;-84
2024/02/05 05:22:08;;;;;;;0.30;0.30;;;6.90;99.90;;;;;;4986857;28;20449;-82
2024/02/05 05:24:34;;;;;;;0.30;0.30;;;6.90;99.90;;;;;;4975770;28;20464;-83
2024/02/05 05:27:01;;;;;;;0.40;0.30;;;6.90;99.90;;;;;;4976221;28;20438;-84
2024/02/05 05:29:28;;;;;;;0.30;0.20;;;6.90;99.90;;;;;;4975619;28;20445;-83
2024/02/05 05:31:56;;;;;;;0.30;0.20;;;6.90;99.90;;;;;;4975422;28;20449;-83
2024/02/05 05:34:23;;;;;;;0.30;0.20;;;6.80;99.90;;;;;;4975611;28;20452;-83
2024/02/05 05:36:49;;;;;;;0.30;0.30;;;6.80;99.90;;;;;;4975501;28;20934;-85
2024/02/05 05:39:16;;;;;;;0.30;0.20;;;6.80;99.90;;;;;;5017994;23;20497;-80
2024/02/05 05:41:43;;;;;;;1.00;0.47;;;6.80;99.90;;;;;;4981581;28;20516;-80
2024/02/05 05:44:10;;;;;;;0.30;0.30;;;6.80;99.90;;;;;;4982886;28;20557;-80
2024/02/05 05:46:37;;;;;;;0.30;0.30;;;6.90;99.90;;;;;;4982652;28;20457;-80
2024/02/05 05:49:05;;;;;;;0.30;0.27;;;6.90;99.90;;;;;;4982776;28;20525;-80
2024/02/05 05:51:32;;;;;;;0.70;0.70;;;6.80;99.90;;;;;;4983255;28;20556;-80
2024/02/05 05:53:59;;;;;;;0.37;0.37;;;6.90;99.90;;;;;;4980382;28;20460;-80
2024/02/05 05:56:25;;;;;;;0.40;0.30;;;7.20;99.90;;;;;;4978932;28;20486;-79
2024/02/05 05:58:52;;;;;;;0.30;0.30;;;7.70;99.90;;;;;;4978716;28;20473;-79
2024/02/05 06:01:19;;;;;;;0.30;0.20;;;8.10;99.90;;;;;;4978907;28;20938;-79
2024/02/05 06:03:46;;;;;;;0.30;0.30;;;6.80;99.90;;;;;;4978437;28;20989;-79
2024/02/05 06:06:14;;;;;;;0.40;0.40;;;6.80;99.90;;;;;;4978906;28;20511;-79
2024/02/05 06:08:41;;;;;;;0.30;0.30;;;6.80;99.90;;;;;;4978662;28;21008;-79
2024/02/05 06:11:08;;;;;;;0.30;0.20;;;6.90;99.90;;;;;;4978202;28;20442;-80
2024/02/05 06:13:34;;;;;;;0.30;0.20;;;6.90;99.90;;;;;;4977171;28;20453;-79
2024/02/05 06:16:01;;;;;;;0.30;0.20;;;6.90;99.90;;;;;;4977581;28;20457;-79
2024/02/05 06:18:28;;;;;;;0.30;0.30;;;6.90;99.90;;;;;;4977431;28;21003;-79
2024/02/05 06:20:55;;;;;;;0.30;0.20;;;7.90;99.90;;;;;;4978204;28;20488;-79
2024/02/05 06:23:23;;;;;;;0.30;0.20;;;6.90;99.90;;;;;;4979247;28;20477;-79
2024/02/05 06:25:49;;;;;;;0.30;0.30;;;8.60;99.90;;;;;;4984470;28;20418;-79
2024/02/05 06:28:17;;;;;;;0.30;0.30;;;7.60;99.90;;;;;;4981416;28;20473;-79
2024/02/05 06:30:49;;;;;;;0.30;0.30;;;6.80;99.90;;;;;;4981217;28;20457;-80
2024/02/05 06:33:16;;;;;;;0.30;0.20;;;7.50;99.90;;;;;;4983826;28;20444;-79
2024/02/05 06:35:43;;;;;;;0.30;0.30;;;6.80;99.90;;;;;;4984882;28;20465;-79
2024/02/05 06:38:10;;;;;;;0.30;0.30;;;6.90;99.90;;;;;;4983773;28;20485;-79
2024/02/05 06:40:38;;;;;;;0.40;0.40;;;6.80;99.90;;;;;;4984326;28;20433;-79
2024/02/05 06:43:08;;;;;;;0.30;0.30;;;6.80;99.90;;;;;;4982675;28;20492;-79
2024/02/05 06:45:37;;;;;;;0.37;0.30;;;7.50;99.90;;;;;;4979996;28;20453;-80
2024/02/05 06:48:04;;;;;;;0.30;0.30;;;7.50;99.90;;;;;;4978822;28;20520;-80
2024/02/05 06:50:31;;;;;;;0.30;0.20;;;6.90;99.90;;;;;;4979612;28;20479;-79
2024/02/05 06:52:58;;;;;;;0.30;0.30;;;6.90;99.90;;;;;;4978765;28;20501;-79
2024/02/05 06:55:25;;;;;;;0.30;0.20;;;6.90;99.90;;;;;;4979412;28;20796;-79
2024/02/05 06:57:53;;;;;;;0.30;0.20;;;6.80;99.90;;;;;;4979393;28;20449;-79
2024/02/05 07:00:20;;;;;;;0.30;0.30;;;6.80;99.90;;;;;;4978604;28;20449;-79
2024/02/05 07:02:46;;;;;;;0.30;0.30;;;6.80;99.90;;;;;;4978586;28;20528;-79
2024/02/05 07:05:14;;;;;;;0.40;0.40;;;8.10;99.90;;;;;;4978551;28;20457;-79
2024/02/05 07:07:41;;;;;;;0.40;0.30;;;6.80;99.90;;;;;;4978300;28;20481;-79
2024/02/05 07:10:10;;;;;;;0.83;0.30;;;6.80;99.90;;;;;;4978950;28;20461;-79
2024/02/05 07:12:37;;;;;;;0.30;0.20;;;6.60;99.90;;;;;;4982329;28;20821;-79
2024/02/05 07:15:06;;;;;;;0.30;0.30;;;6.50;99.90;;;;;;4982618;28;20460;-79
2024/02/05 07:17:34;;;;;;;0.30;0.30;;;6.50;99.90;;;;;;4983496;28;20472;-79
2024/02/05 07:20:01;;;;;;;0.30;0.30;;;6.50;99.90;;;;;;4982902;28;20469;-79
2024/02/05 07:22:28;;;;;;;0.40;0.30;;;6.50;99.90;;;;;;4982683;28;20513;-79
2024/02/05 07:24:55;;;;;;;0.30;0.30;;;6.50;99.90;;;;;;4982118;28;20864;-79
2024/02/05 07:27:24;;;;;;;0.30;0.20;;;7.40;99.90;;;;;;4982591;28;20448;-79
2024/02/05 07:29:51;;;;;;;0.30;0.30;;;6.60;99.90;;;;;;4982720;28;20564;-79
2024/02/05 07:32:19;;;;;;;0.30;0.20;;;6.70;99.90;;;;;;4982469;28;20513;-79
2024/02/05 07:34:47;;;;;;;0.30;0.20;;;6.70;99.90;;;;;;4982339;28;20477;-79
2024/02/05 07:37:14;;;;;;;0.30;0.30;;;6.70;99.90;;;;;;4983203;28;21060;-79
2024/02/05 07:39:40;;;;;;;0.30;0.30;;;6.70;99.90;;;;;;4983247;28;20541;-79
2024/02/05 07:42:10;;;;;;;0.40;0.30;;;6.80;99.90;;;;;;4983223;28;20452;-79
2024/02/05 07:44:37;;;;;;;0.50;0.30;;;8.10;99.90;;;;;;4983559;28;20477;-79
2024/02/05 07:47:04;;;;;;;0.30;0.20;;;6.80;99.90;;;;;;4982754;28;20457;-79
2024/02/05 07:49:32;;;;;;;0.30;0.27;;;6.80;99.90;;;;;;4982731;28;20473;-79
2024/02/05 07:51:58;;;;;;;0.40;0.30;;;7.20;99.90;;;;;;4983509;28;20449;-80
2024/02/05 07:54:27;;;;;;;0.30;0.30;;;7.00;99.90;;;;;;4980121;28;20452;-80
2024/02/05 07:56:55;;;;;;;0.30;0.30;;;7.10;99.90;;;;;;4979556;28;20481;-79
2024/02/05 07:59:22;;;;;;;0.30;0.30;;;7.10;99.90;;;;;;4980312;28;20476;-79
2024/02/05 08:01:49;;;;;;;0.30;0.30;;;7.20;99.90;;;;;;4979111;28;20453;-79
2024/02/05 08:04:15;;;;;;;1.27;0.40;;;7.30;99.90;;;;;;4979529;28;20489;-79
2024/02/05 08:06:43;;;;;;;0.60;0.40;;;7.30;99.90;;;;;;4979953;28;20456;-79
2024/02/05 08:09:10;;;;;;;0.30;0.30;;;7.40;99.90;;;;;;4979691;28;20480;-79
2024/02/05 08:11:37;;;;;;;0.40;0.30;;;7.40;99.90;;;;;;4979694;28;20438;-79
2024/02/05 08:14:06;;;;;;;0.30;0.30;;;7.40;99.90;;;;;;4979565;28;20453;-79
2024/02/05 08:16:32;;;;;;;0.77;0.40;;;7.40;99.90;;;;;;4979726;28;20508;-79
2024/02/05 08:18:59;;;;;;;0.50;0.30;;;7.30;99.90;;;;;;4980078;28;20479;-79
2024/02/05 08:21:26;;;;;;;0.73;0.40;;;7.30;99.90;;;;;;4978901;28;20441;-79
2024/02/05 08:23:54;;;;;;;2.73;0.40;;;7.20;99.90;;;;;;4979186;28;20484;-79
2024/02/05 08:26:21;;;;;;;0.30;0.30;;;7.10;99.90;;;;;;4979743;28;20476;-79
2024/02/05 08:28:48;;;;;;;0.40;0.30;;;7.00;99.90;;;;;;4978896;28;20477;-79
2024/02/05 08:31:15;;;;;;;0.30;0.30;;;7.00;99.90;;;;;;4979057;28;20492;-79
2024/02/05 08:33:42;;;;;;;0.47;0.37;;;7.00;99.90;;;;;;4979385;28;20449;-79
2024/02/05 08:36:09;;;;;;;0.70;0.47;;;7.00;99.90;;;;;;4979495;28;20449;-79
2024/02/05 08:38:36;;;;;;;0.30;0.30;;;7.00;99.90;;;;;;4979248;28;20485;-79
2024/02/05 08:41:04;;;;;;;0.50;0.30;;;7.00;99.90;;;;;;4979694;28;20444;-79
2024/02/05 08:43:31;;;;;;;0.40;0.30;;;7.00;99.90;;;;;;4979831;28;20485;-80
2024/02/05 08:45:58;;;;;;;0.47;0.30;;;7.00;99.90;;;;;;4979910;28;20449;-79
2024/02/05 08:48:25;;;;;;;0.40;0.30;;;7.00;99.90;;;;;;4979848;28;20511;-79
2024/02/05 08:50:52;;;;;;;0.77;0.40;;;7.00;99.90;;;;;;4980302;28;20464;-79
2024/02/05 08:53:19;;;;;;;0.40;0.40;;;7.30;99.90;;;;;;4979952;28;20457;-79
2024/02/05 08:55:46;;;;;;;0.40;0.30;;;7.30;99.90;;;;;;4979629;28;20464;-79
2024/02/05 08:58:14;;;;;;;0.40;0.30;;;7.60;99.90;;;;;;4979147;28;20589;-79
2024/02/05 09:00:41;;;;;;;0.30;0.30;;;8.00;99.90;;;;;;4980581;28;20476;-80
2024/02/05 09:03:10;;;;;;;0.40;0.30;;;8.40;99.90;;;;;;4986424;28;20448;-80
2024/02/05 09:05:37;;;;;;;0.30;0.30;;;9.50;99.90;;;;;;4985325;28;20540;-80
2024/02/05 09:08:05;;;;;;;0.60;0.30;;;9.20;99.90;;;;;;4985938;28;20474;-80
2024/02/05 09:10:32;;;;;;;0.30;0.30;;;10.10;99.90;;;;;;4985538;28;20977;-80
2024/02/05 09:12:58;;;;;;;0.40;0.30;;;12.60;99.90;;;;;;4986405;28;20473;-80
2024/02/05 09:15:38;;;;;;;0.40;0.40;;;11.40;99.90;;;;;;4986005;28;20794;-80
2024/02/05 09:18:05;;;;;;;0.40;0.30;;;12.00;99.90;;;;;;4985080;28;20483;-80
2024/02/05 09:20:32;;;;;;;2.50;0.50;;;12.90;99.90;;;;;;4986529;28;20516;-80
2024/02/05 09:22:59;;;;;;;0.40;0.30;;;13.20;99.90;;;;;;4985558;28;20468;-80
2024/02/05 09:25:27;;;;;;;2.80;0.30;;;13.80;99.90;;;;;;4984882;28;20572;-80
2024/02/05 09:27:54;;;;;;;3.17;0.40;;;14.20;99.90;;;;;;4984516;28;20442;-80
2024/02/05 09:30:21;;;;;;;0.37;0.33;;;15.20;99.90;;;;;;4981720;28;21001;-79
2024/02/05 09:32:50;;;;;;;0.40;0.30;;;16.00;99.90;;;;;;4979657;28;20454;-79
2024/02/05 09:35:25;;;;;;;0.30;0.20;;;17.00;99.90;;;;;;4979966;28;20525;-79
2024/02/05 09:37:52;;;;;;;0.40;0.30;;;17.20;99.90;;;;;;4979205;28;20417;-79
2024/02/05 09:40:19;;;;;;;0.40;0.33;;;17.70;99.90;;;;;;4978990;28;20997;-79
2024/02/05 09:42:53;;;;;;;0.30;0.30;;;18.40;99.90;;;;;;4979755;28;20451;-79
2024/02/05 09:45:20;;;;;;;0.40;0.30;;;18.50;99.90;;;;;;4979674;28;20469;-79
2024/02/05 09:48:05;;;;;;;0.50;0.30;;;18.90;99.90;;;;;;4978738;28;20481;-79
2024/02/05 09:50:33;;;;;;;1.13;0.30;;;19.40;99.90;;;;;;4978657;28;20449;-79
2024/02/05 09:53:02;;;;;;;0.40;0.30;;;19.30;99.90;;;;;;4979229;28;20453;-79
2024/02/05 09:55:29;;;;;;;0.40;0.33;;;19.90;99.90;;;;;;4979525;28;20473;-79
2024/02/05 09:57:57;;;;;;;1.37;0.30;;;20.20;98.20;;;;;;4980010;28;20445;-81
2024/02/05 10:00:24;;;;;;;5.07;0.43;;;20.00;98.00;;;;;;4975864;28;20449;-79
2024/02/05 10:02:51;;;;;;;4.03;0.40;;;20.00;98.40;;;;;;4975840;28;20826;-79
2024/02/05 10:05:25;;;;;;;0.30;0.30;;;19.50;96.60;;;;;;4975646;28;21017;-79
2024/02/05 10:07:55;;;;;;;1.43;0.40;;;19.30;97.50;;;;;;4976182;28;20433;-79
2024/02/05 10:10:23;;;;;;;0.30;0.30;;;18.90;97.60;;;;;;4976119;28;20445;-79
2024/02/05 10:12:52;;;;;;;0.40;0.30;;;18.60;98.30;;;;;;4976295;28;20540;-79
2024/02/05 10:15:20;;;;;;;0.80;0.50;;;18.60;96.70;;;;;;4975742;28;20441;-79
2024/02/05 10:17:48;;;;;;;0.80;0.40;;;18.80;98.20;;;;;;4976537;28;20460;-79
2024/02/05 10:20:15;;;;;;;1.33;0.37;;;19.00;97.50;;;;;;4975770;28;20452;-79
2024/02/05 10:22:47;;;;;;;2.70;0.40;;;18.90;96.40;;;;;;4975940;28;20529;-79
2024/02/05 10:25:14;;;;;;;0.40;0.33;;;18.90;96.80;;;;;;4976443;28;20484;-79
2024/02/05 10:27:42;;;;;;;0.40;0.30;;;18.70;96.50;;;;;;4976307;28;20445;-79
2024/02/05 10:30:09;;;;;;;0.63;0.40;;;18.10;96.50;;;;;;4976612;28;20442;-79
2024/02/05 10:32:36;;;;;;;0.40;0.37;;;17.40;97.70;;;;;;4977654;28;20430;-79
2024/02/05 10:35:03;;;;;;;2.10;0.40;;;17.00;98.30;;;;;;4977727;28;20449;-79
2024/02/05 10:37:30;;;;;;;0.57;0.30;;;16.50;98.50;;;;;;4977500;28;20866;-79
2024/02/05 10:40:06;;;;;;;0.60;0.40;;;15.90;99.30;;;;;;4977602;28;20867;-79
2024/02/05 10:42:34;;;;;;;0.43;0.30;;;15.10;99.90;;;;;;4976829;28;20788;-79
2024/02/05 10:45:04;;;;;;;0.50;0.33;;;14.30;99.90;;;;;;4976912;28;20485;-79
2024/02/05 10:47:31;;;;;;;0.43;0.43;;;13.90;99.90;;;;;;4980335;28;20430;-79
2024/02/05 10:49:58;;;;;;;0.53;0.30;;;13.60;99.90;;;;;;4980029;28;20970;-79
2024/02/05 10:52:27;;;;;;;1.20;0.60;;;13.30;99.90;;;;;;4981053;28;20472;-79
2024/02/05 10:54:55;;;;;;;3.13;0.30;;;13.10;99.90;;;;;;4981131;28;20452;-79
2024/02/05 10:57:25;;;;;;;2.00;0.60;;;12.80;99.90;;;;;;4982228;28;20454;-79
2024/02/05 10:59:51;;;;;;;0.43;0.40;;;12.90;99.90;;;;;;4980418;28;20560;-79
2024/02/05 11:02:23;;;;;;;1.03;0.50;;;13.20;99.90;;;;;;4980123;28;20938;-79
2024/02/05 11:04:54;;;;;;;0.43;0.33;;;13.50;99.90;;;;;;4980227;28;20545;-79
2024/02/05 11:07:23;;;;;;;0.40;0.40;;;13.60;99.90;;;;;;4980756;28;20433;-79
2024/02/05 11:09:50;;;;;;;0.40;0.30;;;13.50;99.90;;;;;;4979579;28;20509;-79
2024/02/05 11:12:22;;;;;;;1.33;0.43;;;13.50;99.90;;;;;;4980752;28;20488;-80
2024/02/05 11:14:55;;;;;;;1.50;0.50;;;12.90;99.90;;;;;;4979159;28;20430;-80
2024/02/05 11:17:22;;;;;;;0.40;0.30;;;12.50;99.90;;;;;;4979473;28;20445;-80
2024/02/05 11:19:51;;;;;;;0.40;0.40;;;12.50;99.90;;;;;;4978485;28;20464;-80
2024/02/05 11:22:19;;;;;;;1.07;0.40;;;12.50;99.90;;;;;;4979280;28;20437;-80
2024/02/05 11:24:47;;;;;;;0.73;0.40;;;12.30;99.90;;;;;;4979639;28;20465;-80
2024/02/05 11:27:13;;;;;;;0.43;0.30;;;12.30;99.90;;;;;;4979281;28;20453;-80
2024/02/05 11:29:43;;;;;;;0.90;0.40;;;12.10;99.90;;;;;;4979128;28;20457;-79
2024/02/05 11:32:11;;;;;;;0.40;0.40;;;12.00;99.90;;;;;;4979976;28;20445;-79
2024/02/05 11:34:42;;;;;;;0.60;0.60;;;11.90;99.90;;;;;;4979701;28;20453;-79
2024/02/05 11:37:09;;;;;;;1.47;0.53;;;11.90;99.90;;;;;;4979862;28;20473;-79
2024/02/05 11:39:37;;;;;;;0.40;0.40;;;11.80;99.90;;;;;;5023355;23;20503;-80
2024/02/05 11:42:08;;;;;;;0.30;0.27;;;11.90;99.90;;;;;;4986649;28;20446;-80
2024/02/05 11:44:34;;;;;;;0.50;0.50;;;11.90;99.90;;;;;;4987243;28;20481;-80
2024/02/05 11:47:01;;;;;;;1.00;0.87;;;11.90;99.90;;;;;;4984484;28;20446;-80
2024/02/05 11:49:33;;;;;;;0.50;0.50;;;12.00;99.90;;;;;;4983900;28;20469;-80
2024/02/05 11:52:00;;;;;;;1.00;0.80;;;12.00;99.90;;;;;;4984476;28;20453;-80
2024/02/05 11:54:29;;;;;;;0.47;0.40;;;12.00;99.90;;;;;;4985600;28;20524;-80
2024/02/05 11:56:56;;;;;;;1.23;0.40;;;12.00;99.90;;;;;;4985364;28;20859;-80
2024/02/05 11:59:23;;;;;;;0.40;0.37;;;12.10;99.90;;;;;;4984420;28;20472;-80
2024/02/05 12:01:50;;;;;;;0.30;0.30;;;12.00;99.90;;;;;;4985615;28;20449;-80
2024/02/05 12:04:18;;;;;;;1.33;0.40;;;12.00;99.90;;;;;;4984178;28;20456;-80
2024/02/05 12:06:47;;;;;;;0.33;0.30;;;11.90;99.90;;;;;;4984364;28;20460;-80
2024/02/05 12:09:15;;;;;;;0.40;0.30;;;11.80;99.90;;;;;;4983649;28;20460;-80
2024/02/05 12:11:42;;;;;;;0.40;0.40;;;11.70;99.90;;;;;;4983510;28;20449;-80
2024/02/05 12:14:10;;;;;;;0.30;0.30;;;11.70;99.90;;;;;;4983730;28;20449;-80
2024/02/05 12:16:38;;;;;;;0.40;0.40;;;11.60;99.90;;;;;;4983479;28;20453;-80
2024/02/05 12:19:05;;;;;;;0.50;0.40;;;11.60;99.90;;;;;;4982668;28;20469;-80
2024/02/05 12:21:32;;;;;;;0.50;0.40;;;11.50;99.90;;;;;;4983807;28;20449;-81
2024/02/05 12:24:00;;;;;;;0.40;0.30;;;11.40;99.90;;;;;;4983576;28;20453;-80
2024/02/05 12:26:27;;;;;;;1.30;0.70;;;11.40;99.90;;;;;;4981885;28;20480;-80
2024/02/05 12:28:54;;;;;;;1.00;0.47;;;11.50;99.90;;;;;;4982970;28;20454;-80
2024/02/05 12:31:21;;;;;;;0.40;0.40;;;11.40;99.90;;;;;;4982222;28;20441;-81
2024/02/05 12:33:49;;;;;;;0.50;0.50;;;11.30;99.90;;;;;;4983384;28;20437;-80
2024/02/05 12:36:16;;;;;;;1.47;0.30;;;11.20;99.90;;;;;;4987150;28;20495;-81
2024/02/05 12:38:43;;;;;;;0.60;0.60;;;11.20;99.90;;;;;;4984647;28;20484;-80
2024/02/05 12:41:11;;;;;;;0.40;0.40;;;11.10;99.90;;;;;;4982391;28;20817;-81
2024/02/05 12:43:38;;;;;;;2.00;0.40;;;11.00;99.90;;;;;;4980255;28;20456;-80
2024/02/05 12:46:05;;;;;;;0.50;0.50;;;11.00;99.90;;;;;;4979912;28;20847;-80
2024/02/05 12:48:33;;;;;;;0.40;0.30;;;10.90;99.90;;;;;;4982004;28;20453;-80
2024/02/05 12:51:00;;;;;;;0.60;0.40;;;10.90;99.90;;;;;;4981162;28;20449;-80
2024/02/05 12:53:27;;;;;;;0.63;0.63;;;10.80;99.90;;;;;;4981282;28;20472;-80
2024/02/05 12:55:57;;;;;;;0.90;0.50;;;10.80;99.90;;;;;;4984014;28;20445;-81